Time;durP1;ratioP1;P1;durP2;ratioP2;P2;SDS_P1;SDS_P2;PMS_P1;PMS_P2;Temp;Humidity;BMP_temperature;BMP_pressure;BME280_temperature;BME280_humidity;BME280_pressure;Samples;Min_cycle;Max_cycle;Signal;HPM_P1;HPM_P2
2022/09/13 00:01:33;;;;;;;;;;;;;;;;;;5054052;28;45251;-79
2022/09/13 00:04:00;;;;;;;;;;;;;;;;;;5055380;28;44878;-79
2022/09/13 00:06:26;;;;;;;;;;;;;;;;;;5051472;28;45877;-78
2022/09/13 00:08:53;;;;;;;;;;;;;;;;;;5052576;28;45609;-79
2022/09/13 00:11:19;;;;;;;;;;;;;;;;;;5051183;28;46300;-79
2022/09/13 00:13:46;;;;;;;;;;;;;;;;;;5038909;28;46440;-79
2022/09/13 00:16:15;;;;;;;;;;;;;;;;;;5038797;28;43761;-79
2022/09/13 00:18:41;;;;;;;;;;;;;;;;;;5043507;28;47133;-79
2022/09/13 00:21:07;;;;;;;;;;;;;;;;;;5054947;28;46732;-79
2022/09/13 00:23:34;;;;;;;;;;;;;;;;;;5069175;28;42832;-79
2022/09/13 00:26:00;;;;;;;;;;;;;;;;;;5059132;28;44151;-79
2022/09/13 00:28:28;;;;;;;;;;;;;;;;;;5058741;28;47283;-79
2022/09/13 00:30:55;;;;;;;;;;;;;;;;;;5052495;28;46011;-79
2022/09/13 00:33:21;;;;;;;;;;;;;;;;;;5038166;28;48438;-79
2022/09/13 00:35:47;;;;;;;;;;;;;;;;;;5049158;28;43126;-79
2022/09/13 00:38:13;;;;;;;;;;;;;;;;;;5058168;28;45280;-79
2022/09/13 00:40:40;;;;;;;;;;;;;;;;;;5058360;28;48462;-79
2022/09/13 00:43:06;;;;;;;;;;;;;;;;;;5057135;28;45125;-79
2022/09/13 00:45:32;;;;;;;;;;;;;;;;;;5077564;28;45136;-79
2022/09/13 00:47:58;;;;;;;;;;;;;;;;;;5054039;28;48437;-80
2022/09/13 00:50:25;;;;;;;;;;;;;;;;;;5047527;28;44026;-79
2022/09/13 00:52:51;;;;;;;;;;;;;;;;;;5057090;28;48332;-79
2022/09/13 00:55:17;;;;;;;;;;;;;;;;;;5074372;28;42518;-79
2022/09/13 00:57:43;;;;;;;;;;;;;;;;;;5056883;28;46689;-80
2022/09/13 01:00:13;;;;;;;;;;;;;;;;;;5056986;28;48527;-79
2022/09/13 01:02:39;;;;;;;;;;;;;;;;;;5062053;28;42397;-78
2022/09/13 01:05:05;;;;;;;;;;;;;;;;;;5057710;28;46580;-79
2022/09/13 01:07:31;;;;;;;;;;;;;;;;;;5044130;28;47039;-79
2022/09/13 01:09:57;;;;;;;;;;;;;;;;;;5037840;28;43719;-79
2022/09/13 01:12:24;;;;;;;;;;;;;;;;;;5046498;28;46922;-79
2022/09/13 01:14:50;;;;;;;;;;;;;;;;;;5076107;28;43398;-79
2022/09/13 01:17:16;;;;;;;;;;;;;;;;;;5055658;28;46742;-79
2022/09/13 01:19:43;;;;;;;;;;;;;;;;;;5074030;28;46312;-79
2022/09/13 01:22:09;;;;;;;;;;;;;;;;;;5056884;28;43782;-79
2022/09/13 01:24:35;;;;;;;;;;;;;;;;;;5055545;28;45007;-79
2022/09/13 01:27:01;;;;;;;;;;;;;;;;;;5053085;28;48354;-79
2022/09/13 01:29:27;;;;;;;;;;;;;;;;;;5062583;28;44069;-79
2022/09/13 01:31:54;;;;;;;;;;;;;;;;;;5073749;28;46428;-79
2022/09/13 01:34:20;;;;;;;;;;;;;;;;;;5074556;28;48253;-79
2022/09/13 01:36:46;;;;;;;;;;;;;;;;;;5051056;28;45231;-78
2022/09/13 01:39:12;;;;;;;;;;;;;;;;;;5037261;28;46672;-78
2022/09/13 01:41:41;;;;;;;;;;;;;;;;;;5055793;28;45021;-79
2022/09/13 01:44:07;;;;;;;;;;;;;;;;;;5055936;28;46780;-79
2022/09/13 01:46:34;;;;;;;;;;;;;;;;;;5054692;28;45843;-79
2022/09/13 01:49:00;;;;;;;;;;;;;;;;;;5055439;28;44832;-79
2022/09/13 01:51:27;;;;;;;;;;;;;;;;;;5056855;28;46760;-79
2022/09/13 01:53:54;;;;;;;;;;;;;;;;;;5056599;28;47309;-79
2022/09/13 01:56:20;;;;;;;;;;;;;;;;;;5057929;28;43920;-79
2022/09/13 01:58:46;;;;;;;;;;;;;;;;;;5055576;28;45648;-79
2022/09/13 02:01:15;;;;;;;;;;;;;;;;;;5061865;28;42404;-79
2022/09/13 02:03:41;;;;;;;;;;;;;;;;;;5058146;28;46720;-79
2022/09/13 02:06:07;;;;;;;;;;;;;;;;;;5053586;28;46061;-78
2022/09/13 02:08:34;;;;;;;;;;;;;;;;;;5056264;28;43972;-79
2022/09/13 02:11:01;;;;;;;;;;;;;;;;;;5056522;28;46274;-79
2022/09/13 02:13:30;;;;;;;;;;;;;;;;;;5056538;28;45540;-79
2022/09/13 02:15:56;;;;;;;;;;;;;;;;;;5051570;28;43915;-79
2022/09/13 02:18:22;;;;;;;;;;;;;;;;;;5043679;28;48131;-79
2022/09/13 02:20:49;;;;;;;;;;;;;;;;;;5072115;28;43409;-78
2022/09/13 02:23:15;;;;;;;;;;;;;;;;;;5073884;28;46471;-79
2022/09/13 02:25:41;;;;;;;;;;;;;;;;;;5055683;28;47992;-79
2022/09/13 02:28:07;;;;;;;;;;;;;;;;;;5073248;28;44971;-79
2022/09/13 02:30:33;;;;;;;;;;;;;;;;;;5054404;28;44879;-79
2022/09/13 02:32:59;;;;;;;;;;;;;;;;;;5065681;28;48746;-78
2022/09/13 02:35:26;;;;;;;;;;;;;;;;;;5062246;28;44057;-78
2022/09/13 02:37:52;;;;;;;;;;;;;;;;;;5067943;28;46685;-79
2022/09/13 02:40:21;;;;;;;;;;;;;;;;;;5056456;28;44597;-79
2022/09/13 02:42:47;;;;;;;;;;;;;;;;;;5055853;28;43473;-79
2022/09/13 02:45:13;;;;;;;;;;;;;;;;;;5056689;28;48104;-78
2022/09/13 02:47:40;;;;;;;;;;;;;;;;;;5057624;28;42637;-78
2022/09/13 02:50:06;;;;;;;;;;;;;;;;;;5075544;28;46342;-78
2022/09/13 02:52:32;;;;;;;;;;;;;;;;;;5056346;28;47199;-78
2022/09/13 02:54:58;;;;;;;;;;;;;;;;;;5056418;28;44750;-78
2022/09/13 02:57:25;;;;;;;;;;;;;;;;;;5074302;28;46478;-79
2022/09/13 02:59:54;;;;;;;;;;;;;;;;;;5075718;28;45062;-79
2022/09/13 03:02:20;;;;;;;;;;;;;;;;;;5073851;28;47908;-79
2022/09/13 03:04:49;;;;;;;;;;;;;;;;;;5054313;28;46336;-79
2022/09/13 03:07:15;;;;;;;;;;;;;;;;;;5050723;28;45115;-79
2022/09/13 03:09:41;;;;;;;;;;;;;;;;;;5070064;28;46640;-78
2022/09/13 03:12:08;;;;;;;;;;;;;;;;;;5056171;28;45879;-79
2022/09/13 03:14:34;;;;;;;;;;;;;;;;;;5073542;28;44059;-79
2022/09/13 03:17:00;;;;;;;;;;;;;;;;;;5054040;28;47608;-79
2022/09/13 03:19:27;;;;;;;;;;;;;;;;;;5068385;28;48185;-79
2022/09/13 03:21:53;;;;;;;;;;;;;;;;;;5075151;28;45289;-79
2022/09/13 03:24:19;;;;;;;;;;;;;;;;;;5071164;28;47631;-79
2022/09/13 03:26:46;;;;;;;;;;;;;;;;;;5051540;28;44945;-78
2022/09/13 03:29:12;;;;;;;;;;;;;;;;;;5062505;28;46760;-79
2022/09/13 03:31:38;;;;;;;;;;;;;;;;;;5054582;28;46919;-79
2022/09/13 03:34:04;;;;;;;;;;;;;;;;;;5054872;28;43103;-79
2022/09/13 03:36:30;;;;;;;;;;;;;;;;;;5055876;28;46076;-79
2022/09/13 03:38:57;;;;;;;;;;;;;;;;;;5054175;28;46289;-79
2022/09/13 03:41:23;;;;;;;;;;;;;;;;;;5070962;28;45023;-79
2022/09/13 03:43:49;;;;;;;;;;;;;;;;;;5054340;28;46670;-79
2022/09/13 03:46:15;;;;;;;;;;;;;;;;;;5056457;28;44509;-79
2022/09/13 03:48:41;;;;;;;;;;;;;;;;;;5057263;28;47830;-79
2022/09/13 03:51:08;;;;;;;;;;;;;;;;;;5058426;28;48275;-79
2022/09/13 03:53:34;;;;;;;;;;;;;;;;;;5074606;28;42667;-79
2022/09/13 03:56:00;;;;;;;;;;;;;;;;;;5076063;28;44681;-78
2022/09/13 03:58:27;;;;;;;;;;;;;;;;;;5076064;28;45132;-78
2022/09/13 04:00:53;;;;;;;;;;;;;;;;;;5054045;28;41772;-78
2022/09/13 04:03:20;;;;;;;;;;;;;;;;;;5075662;28;46642;-78
2022/09/13 04:05:46;;;;;;;;;;;;;;;;;;5056755;28;47309;-78
2022/09/13 04:08:12;;;;;;;;;;;;;;;;;;5076221;28;48171;-78
2022/09/13 04:10:39;;;;;;;;;;;;;;;;;;5057554;28;48367;-78
2022/09/13 04:13:05;;;;;;;;;;;;;;;;;;5057501;28;43646;-78
2022/09/13 04:15:31;;;;;;;;;;;;;;;;;;5058414;28;47845;-79
2022/09/13 04:17:58;;;;;;;;;;;;;;;;;;5051952;28;47858;-79
2022/09/13 04:20:24;;;;;;;;;;;;;;;;;;5074302;28;43210;-78
2022/09/13 04:22:51;;;;;;;;;;;;;;;;;;5057082;28;47397;-78
2022/09/13 04:25:17;;;;;;;;;;;;;;;;;;5056367;28;46789;-79
2022/09/13 04:27:43;;;;;;;;;;;;;;;;;;5052032;28;42515;-78
2022/09/13 04:30:10;;;;;;;;;;;;;;;;;;5054395;28;48377;-78
2022/09/13 04:32:36;;;;;;;;;;;;;;;;;;5054226;28;42115;-78
2022/09/13 04:35:02;;;;;;;;;;;;;;;;;;5074202;28;46563;-78
2022/09/13 04:37:28;;;;;;;;;;;;;;;;;;5073490;28;48093;-78
2022/09/13 04:39:55;;;;;;;;;;;;;;;;;;5075232;28;44977;-78
2022/09/13 04:42:21;;;;;;;;;;;;;;;;;;5054412;28;43475;-78
2022/09/13 04:44:48;;;;;;;;;;;;;;;;;;5073645;28;47264;-78
2022/09/13 04:47:15;;;;;;;;;;;;;;;;;;5074852;28;44129;-78
2022/09/13 04:49:41;;;;;;;;;;;;;;;;;;5057063;28;47082;-78
2022/09/13 04:52:07;;;;;;;;;;;;;;;;;;5071006;28;42443;-81
2022/09/13 04:54:34;;;;;;;;;;;;;;;;;;5056350;28;44391;-78
2022/09/13 04:57:00;;;;;;;;;;;;;;;;;;5074943;28;48608;-78
2022/09/13 04:59:26;;;;;;;;;;;;;;;;;;5073542;28;42491;-78
2022/09/13 05:01:52;;;;;;;;;;;;;;;;;;5048928;28;47066;-78
2022/09/13 05:04:19;;;;;;;;;;;;;;;;;;5055246;28;44039;-78
2022/09/13 05:06:47;;;;;;;;;;;;;;;;;;5056972;28;41436;-79
2022/09/13 05:09:13;;;;;;;;;;;;;;;;;;5059678;28;46551;-79
2022/09/13 05:11:39;;;;;;;;;;;;;;;;;;5057582;28;41945;-79
2022/09/13 05:14:06;;;;;;;;;;;;;;;;;;5058032;28;47657;-79
2022/09/13 05:16:32;;;;;;;;;;;;;;;;;;5055652;28;48341;-80
2022/09/13 05:18:58;;;;;;;;;;;;;;;;;;5075240;28;44035;-80
2022/09/13 05:21:24;;;;;;;;;;;;;;;;;;5057627;28;46754;-79
2022/09/13 05:23:51;;;;;;;;;;;;;;;;;;5055831;28;47232;-78
2022/09/13 05:26:17;;;;;;;;;;;;;;;;;;5055674;28;42674;-79
2022/09/13 05:28:43;;;;;;;;;;;;;;;;;;5055808;28;49661;-79
2022/09/13 05:31:09;;;;;;;;;;;;;;;;;;5056936;28;48056;-79
2022/09/13 05:33:35;;;;;;;;;;;;;;;;;;5057917;28;47298;-78
2022/09/13 05:36:02;;;;;;;;;;;;;;;;;;5057886;28;47289;-80
2022/09/13 05:38:28;;;;;;;;;;;;;;;;;;5054569;28;42205;-79
2022/09/13 05:40:55;;;;;;;;;;;;;;;;;;5053480;28;46752;-79
2022/09/13 05:43:22;;;;;;;;;;;;;;;;;;5042995;28;45757;-79
2022/09/13 05:45:48;;;;;;;;;;;;;;;;;;5054880;28;45132;-79
2022/09/13 05:48:14;;;;;;;;;;;;;;;;;;5053479;28;45839;-80
2022/09/13 05:50:41;;;;;;;;;;;;;;;;;;5053686;28;45605;-79
2022/09/13 05:53:23;;;;;;;;;;;;;;;;;;5072176;28;43158;-78
2022/09/13 05:55:49;;;;;;;;;;;;;;;;;;5054623;28;47597;-78
2022/09/13 05:58:15;;;;;;;;;;;;;;;;;;5053215;28;41810;-78
2022/09/13 06:00:41;;;;;;;;;;;;;;;;;;5053161;28;46643;-83
2022/09/13 06:03:07;;;;;;;;;;;;;;;;;;5067110;28;45523;-81
2022/09/13 06:05:35;;;;;;;;;;;;;;;;;;5046886;28;44645;-81
2022/09/13 06:08:01;;;;;;;;;;;;;;;;;;5032903;28;47727;-81
2022/09/13 06:10:27;;;;;;;;;;;;;;;;;;5050370;28;46083;-81
2022/09/13 06:12:54;;;;;;;;;;;;;;;;;;5055314;28;45134;-82
2022/09/13 06:15:20;;;;;;;;;;;;;;;;;;5049434;28;44008;-82
2022/09/13 06:17:46;;;;;;;;;;;;;;;;;;5070109;28;46215;-81
2022/09/13 06:20:12;;;;;;;;;;;;;;;;;;5059899;28;44740;-83
2022/09/13 06:22:39;;;;;;;;;;;;;;;;;;5061272;28;46938;-82
2022/09/13 06:25:05;;;;;;;;;;;;;;;;;;5051073;28;42530;-82
2022/09/13 06:27:33;;;;;;;;;;;;;;;;;;5065298;28;46605;-80
2022/09/13 06:30:00;;;;;;;;;;;;;;;;;;5054460;28;46810;-81
2022/09/13 06:32:26;;;;;;;;;;;;;;;;;;5064637;28;45355;-80
2022/09/13 06:34:52;;;;;;;;;;;;;;;;;;5050535;28;47846;-80
2022/09/13 06:37:18;;;;;;;;;;;;;;;;;;5051143;28;33041;-80
2022/09/13 06:39:45;;;;;;;;;;;;;;;;;;5051861;28;46724;-80
2022/09/13 06:42:11;;;;;;;;;;;;;;;;;;5056329;28;45312;-82
2022/09/13 06:44:37;;;;;;;;;;;;;;;;;;5057930;28;44070;-82
2022/09/13 06:47:04;;;;;;;;;;;;;;;;;;5076962;28;44969;-80
2022/09/13 06:49:30;;;;;;;;;;;;;;;;;;5070182;28;44585;-80
2022/09/13 06:51:56;;;;;;;;;;;;;;;;;;5051659;28;44038;-80
2022/09/13 06:54:22;;;;;;;;;;;;;;;;;;5043338;28;45276;-84
2022/09/13 06:56:49;;;;;;;;;;;;;;;;;;5073698;28;45002;-81
2022/09/13 06:59:15;;;;;;;;;;;;;;;;;;5069869;28;47872;-80
2022/09/13 07:01:42;;;;;;;;;;;;;;;;;;5057586;28;45596;-80
2022/09/13 07:04:08;;;;;;;;;;;;;;;;;;5053783;28;43902;-82
2022/09/13 07:06:34;;;;;;;;;;;;;;;;;;5046811;28;46728;-82
2022/09/13 07:09:01;;;;;;;;;;;;;;;;;;5050612;28;48440;-81
2022/09/13 07:11:27;;;;;;;;;;;;;;;;;;5038421;28;43912;-79
2022/09/13 07:13:53;;;;;;;;;;;;;;;;;;5047828;28;46777;-80
2022/09/13 07:16:19;;;;;;;;;;;;;;;;;;5063440;28;45421;-81
2022/09/13 07:18:45;;;;;;;;;;;;;;;;;;5054563;28;43707;-79
2022/09/13 07:21:12;;;;;;;;;;;;;;;;;;5074075;28;48517;-83
2022/09/13 07:23:38;;;;;;;;;;;;;;;;;;5062169;28;43995;-80
2022/09/13 07:26:04;;;;;;;;;;;;;;;;;;5046261;28;46724;-81
2022/09/13 07:28:30;;;;;;;;;;;;;;;;;;5039150;28;47213;-79
2022/09/13 07:31:00;;;;;;;;;;;;;;;;;;5046184;28;44606;-80
2022/09/13 07:33:26;;;;;;;;;;;;;;;;;;5051187;28;47467;-83
2022/09/13 07:35:52;;;;;;;;;;;;;;;;;;5067329;28;45763;-80
2022/09/13 07:38:19;;;;;;;;;;;;;;;;;;5052174;28;43762;-84
2022/09/13 07:40:45;;;;;;;;;;;;;;;;;;5058324;28;46074;-84
2022/09/13 07:43:11;;;;;;;;;;;;;;;;;;5037130;28;42215;-84
2022/09/13 07:45:37;;;;;;;;;;;;;;;;;;5048453;28;46333;-83
2022/09/13 07:48:03;;;;;;;;;;;;;;;;;;5047428;28;47281;-84
2022/09/13 07:50:30;;;;;;;;;;;;;;;;;;5058047;28;43907;-84
2022/09/13 07:52:56;;;;;;;;;;;;;;;;;;5048621;28;46117;-85
2022/09/13 07:55:22;;;;;;;;;;;;;;;;;;5050491;28;46709;-83
2022/09/13 07:57:48;;;;;;;;;;;;;;;;;;5052607;28;43645;-81
2022/09/13 08:00:15;;;;;;;;;;;;;;;;;;5073783;28;46821;-83
2022/09/13 08:02:41;;;;;;;;;;;;;;;;;;5052141;28;47291;-83
2022/09/13 08:05:08;;;;;;;;;;;;;;;;;;5048773;28;46263;-84
2022/09/13 08:07:34;;;;;;;;;;;;;;;;;;5051580;28;46065;-83
2022/09/13 08:10:00;;;;;;;;;;;;;;;;;;5056230;28;43920;-81
2022/09/13 08:12:29;;;;;;;;;;;;;;;;;;5046642;28;46895;-81
2022/09/13 08:14:58;;;;;;;;;;;;;;;;;;5037677;28;45073;-85
2022/09/13 08:17:24;;;;;;;;;;;;;;;;;;5068365;28;43416;-85
2022/09/13 08:19:50;;;;;;;;;;;;;;;;;;5066072;28;48285;-85
2022/09/13 08:22:19;;;;;;;;;;;;;;;;;;5062618;28;45676;-84
2022/09/13 08:24:49;;;;;;;;;;;;;;;;;;5072486;28;43653;-82
2022/09/13 08:27:15;;;;;;;;;;;;;;;;;;5048050;28;47642;-83
2022/09/13 08:29:41;;;;;;;;;;;;;;;;;;5069040;28;45165;-84
2022/09/13 08:32:07;;;;;;;;;;;;;;;;;;5046064;28;45219;-86
2022/09/13 08:34:33;;;;;;;;;;;;;;;;;;5073667;28;47350;-85
2022/09/13 08:37:02;;;;;;;;;;;;;;;;;;5056650;28;44569;-86
2022/09/13 08:39:28;;;;;;;;;;;;;;;;;;5059480;28;45880;-85
2022/09/13 08:41:55;;;;;;;;;;;;;;;;;;5076205;28;47097;-85
2022/09/13 08:44:24;;;;;;;;;;;;;;;;;;5061027;28;44895;-84
2022/09/13 08:46:50;;;;;;;;;;;;;;;;;;5076792;28;44817;-86
2022/09/13 08:49:17;;;;;;;;;;;;;;;;;;5058187;28;42636;-86
2022/09/13 08:51:43;;;;;;;;;;;;;;;;;;5056448;28;48145;-84
2022/09/13 08:54:09;;;;;;;;;;;;;;;;;;5055001;28;47322;-86
2022/09/13 08:56:36;;;;;;;;;;;;;;;;;;5055984;28;41402;-84
2022/09/13 08:59:04;;;;;;;;;;;;;;;;;;5056664;28;46541;-86
2022/09/13 09:01:31;;;;;;;;;;;;;;;;;;5054361;28;46919;-86
2022/09/13 09:03:57;;;;;;;;;;;;;;;;;;5059466;28;42311;-84
2022/09/13 09:06:26;;;;;;;;;;;;;;;;;;5058796;28;45752;-84
2022/09/13 09:08:57;;;;;;;;;;;;;;;;;;5052392;28;43458;-81
2022/09/13 09:11:25;;;;;;;;;;;;;;;;;;5065247;28;44782;-81
2022/09/13 09:13:51;;;;;;;;;;;;;;;;;;5073383;28;46550;-81
2022/09/13 09:16:17;;;;;;;;;;;;;;;;;;5051756;28;43975;-81
2022/09/13 09:18:44;;;;;;;;;;;;;;;;;;5054738;28;45986;-83
2022/09/13 09:21:10;;;;;;;;;;;;;;;;;;5062610;28;47219;-82
2022/09/13 09:23:39;;;;;;;;;;;;;;;;;;5053911;28;42333;-82
2022/09/13 09:26:05;;;;;;;;;;;;;;;;;;5073997;28;46620;-83
2022/09/13 09:28:33;;;;;;;;;;;;;;;;;;5054312;28;45537;-83
2022/09/13 09:30:59;;;;;;;;;;;;;;;;;;5049222;28;46206;-83
2022/09/13 09:33:25;;;;;;;;;;;;;;;;;;5060608;28;46889;-84
2022/09/13 09:35:52;;;;;;;;;;;;;;;;;;5070972;28;42261;-80
2022/09/13 09:38:18;;;;;;;;;;;;;;;;;;5052141;28;46627;-84
2022/09/13 09:40:44;;;;;;;;;;;;;;;;;;5067570;28;47013;-82
2022/09/13 09:43:10;;;;;;;;;;;;;;;;;;5055228;28;44054;-84
2022/09/13 09:45:36;;;;;;;;;;;;;;;;;;5054119;28;45528;-85
2022/09/13 09:48:03;;;;;;;;;;;;;;;;;;5054954;28;47145;-86
2022/09/13 09:50:29;;;;;;;;;;;;;;;;;;5050473;28;43668;-85
2022/09/13 09:52:56;;;;;;;;;;;;;;;;;;5054638;28;47725;-84
2022/09/13 09:55:22;;;;;;;;;;;;;;;;;;5050533;28;41134;-85
2022/09/13 09:57:48;;;;;;;;;;;;;;;;;;5054789;28;46180;-87
2022/09/13 10:00:14;;;;;;;;;;;;;;;;;;5073282;28;47175;-83
2022/09/13 10:02:41;;;;;;;;;;;;;;;;;;5069768;28;44673;-87
2022/09/13 10:05:07;;;;;;;;;;;;;;;;;;5053257;28;46247;-82
2022/09/13 10:07:34;;;;;;;;;;;;;;;;;;5063189;28;46928;-86
2022/09/13 10:10:02;;;;;;;;;;;;;;;;;;5051764;28;44012;-83
2022/09/13 10:12:28;;;;;;;;;;;;;;;;;;5069974;28;44083;-86
2022/09/13 10:14:58;;;;;;;;;;;;;;;;;;5072618;28;43374;-86
2022/09/13 10:17:24;;;;;;;;;;;;;;;;;;5076133;28;44778;-85
2022/09/13 10:19:51;;;;;;;;;;;;;;;;;;5057215;28;47256;-86
2022/09/13 10:22:17;;;;;;;;;;;;;;;;;;5054608;28;46114;-86
2022/09/13 10:24:44;;;;;;;;;;;;;;;;;;5056201;28;47126;-83
2022/09/13 10:27:10;;;;;;;;;;;;;;;;;;5055953;28;45816;-87
2022/09/13 10:29:37;;;;;;;;;;;;;;;;;;5054978;28;43985;-86
2022/09/13 10:32:03;;;;;;;;;;;;;;;;;;5068958;28;45501;-84
2022/09/13 10:34:29;;;;;;;;;;;;;;;;;;5072179;28;47294;-84
2022/09/13 10:36:56;;;;;;;;;;;;;;;;;;5073918;28;45435;-87
2022/09/13 10:39:22;;;;;;;;;;;;;;;;;;5072565;28;45806;-87
2022/09/13 10:41:48;;;;;;;;;;;;;;;;;;5055755;28;42767;-85
2022/09/13 10:44:14;;;;;;;;;;;;;;;;;;5072641;28;45596;-84
2022/09/13 10:46:41;;;;;;;;;;;;;;;;;;5059031;28;48463;-87
2022/09/13 10:49:07;;;;;;;;;;;;;;;;;;5071830;28;42610;-85
2022/09/13 10:51:35;;;;;;;;;;;;;;;;;;5057422;28;46739;-84
2022/09/13 10:54:01;;;;;;;;;;;;;;;;;;5066992;28;48335;-84
2022/09/13 10:56:27;;;;;;;;;;;;;;;;;;5050284;28;45481;-84
2022/09/13 10:58:54;;;;;;;;;;;;;;;;;;5055600;28;47020;-83
2022/09/13 11:01:20;;;;;;;;;;;;;;;;;;5055114;28;42229;-82
2022/09/13 11:03:48;;;;;;;;;;;;;;;;;;5035045;28;47854;-84
2022/09/13 11:06:14;;;;;;;;;;;;;;;;;;5046675;28;44638;-84
2022/09/13 11:08:40;;;;;;;;;;;;;;;;;;5065232;28;42475;-84
2022/09/13 11:11:07;;;;;;;;;;;;;;;;;;5054136;28;45182;-83
2022/09/13 11:13:33;;;;;;;;;;;;;;;;;;5054686;28;45861;-83
2022/09/13 11:15:59;;;;;;;;;;;;;;;;;;5053679;28;42093;-83
2022/09/13 11:18:25;;;;;;;;;;;;;;;;;;5056156;28;47283;-83
2022/09/13 11:20:51;;;;;;;;;;;;;;;;;;5058919;28;43830;-83
2022/09/13 11:23:18;;;;;;;;;;;;;;;;;;5058872;28;45385;-83
2022/09/13 11:25:44;;;;;;;;;;;;;;;;;;5061350;28;46505;-84
2022/09/13 11:28:10;;;;;;;;;;;;;;;;;;5064428;28;47329;-84
2022/09/13 11:30:36;;;;;;;;;;;;;;;;;;5052048;28;46625;-85
2022/09/13 11:33:02;;;;;;;;;;;;;;;;;;5048208;28;48354;-85
2022/09/13 11:35:29;;;;;;;;;;;;;;;;;;5066460;28;43109;-84
2022/09/13 11:37:55;;;;;;;;;;;;;;;;;;5052684;28;45099;-84
2022/09/13 11:40:21;;;;;;;;;;;;;;;;;;5049313;28;45157;-83
2022/09/13 11:42:47;;;;;;;;;;;;;;;;;;5069866;28;46131;-83
2022/09/13 11:45:14;;;;;;;;;;;;;;;;;;5070258;28;47178;-83
2022/09/13 11:47:44;;;;;;;;;;;;;;;;;;5064185;28;44045;-83
2022/09/13 11:50:10;;;;;;;;;;;;;;;;;;5053152;28;48285;-80
2022/09/13 11:52:36;;;;;;;;;;;;;;;;;;5068148;28;46622;-82
2022/09/13 11:55:03;;;;;;;;;;;;;;;;;;5057413;28;44367;-82
2022/09/13 11:57:29;;;;;;;;;;;;;;;;;;5071980;28;46663;-81
2022/09/13 11:59:55;;;;;;;;;;;;;;;;;;5070620;28;46003;-81
2022/09/13 12:02:21;;;;;;;;;;;;;;;;;;5051091;28;46572;-82
2022/09/13 12:04:51;;;;;;;;;;;;;;;;;;5072021;28;47192;-83
2022/09/13 12:07:37;;;;;;;;;;;;;;;;;;5072674;28;19924;-82
2022/09/13 12:10:03;;;;;;;;;;;;;;;;;;5073639;28;44543;-84
2022/09/13 12:12:29;;;;;;;;;;;;;;;;;;5086210;28;45705;-82
2022/09/13 12:14:59;;;;;;;;;;;;;;;;;;5038427;28;44976;-82
2022/09/13 12:17:28;;;;;;;;;;;;;;;;;;5079928;28;47721;-81
2022/09/13 12:19:54;;;;;;;;;;;;;;;;;;5081223;28;47156;-80
2022/09/13 12:22:21;;;;;;;;;;;;;;;;;;5061082;28;43962;-80
2022/09/13 12:24:47;;;;;;;;;;;;;;;;;;5053454;28;46847;-81
2022/09/13 12:27:13;;;;;;;;;;;;;;;;;;5044872;28;43923;-81
2022/09/13 12:29:39;;;;;;;;;;;;;;;;;;5048428;28;48157;-80
2022/09/13 12:32:06;;;;;;;;;;;;;;;;;;5054171;28;47263;-83
2022/09/13 12:34:32;;;;;;;;;;;;;;;;;;5057660;28;43574;-82
2022/09/13 12:36:58;;;;;;;;;;;;;;;;;;5069909;28;46726;-81
2022/09/13 12:39:25;;;;;;;;;;;;;;;;;;5069069;28;47176;-81
2022/09/13 12:41:51;;;;;;;;;;;;;;;;;;5068775;28;43180;-82
2022/09/13 12:44:17;;;;;;;;;;;;;;;;;;5052678;28;46632;-82
2022/09/13 12:46:43;;;;;;;;;;;;;;;;;;5073580;28;41097;-82
2022/09/13 12:49:12;;;;;;;;;;;;;;;;;;5057346;28;46752;-82
2022/09/13 12:51:38;;;;;;;;;;;;;;;;;;5072834;28;47225;-82
2022/09/13 12:54:06;;;;;;;;;;;;;;;;;;5073149;28;43867;-82
2022/09/13 12:56:33;;;;;;;;;;;;;;;;;;5057741;28;46502;-82
2022/09/13 12:59:00;;;;;;;;;;;;;;;;;;5057936;28;44811;-82
2022/09/13 13:01:26;;;;;;;;;;;;;;;;;;5055376;28;44036;-82
2022/09/13 13:03:52;;;;;;;;;;;;;;;;;;5064789;28;48101;-82
2022/09/13 13:06:18;;;;;;;;;;;;;;;;;;5076770;28;41603;-83
2022/09/13 13:08:45;;;;;;;;;;;;;;;;;;5057059;28;46437;-82
2022/09/13 13:11:11;;;;;;;;;;;;;;;;;;5067296;28;46340;-82
2022/09/13 13:13:37;;;;;;;;;;;;;;;;;;5073138;28;44929;-82
2022/09/13 13:16:04;;;;;;;;;;;;;;;;;;5056758;28;45660;-82
2022/09/13 13:18:30;;;;;;;;;;;;;;;;;;5063880;28;47016;-81
2022/09/13 13:20:56;;;;;;;;;;;;;;;;;;5061205;28;44035;-80
2022/09/13 13:23:23;;;;;;;;;;;;;;;;;;5080480;28;46453;-80
2022/09/13 13:25:49;;;;;;;;;;;;;;;;;;5065314;28;45792;-79
2022/09/13 13:28:15;;;;;;;;;;;;;;;;;;5055815;28;46061;-79
2022/09/13 13:30:41;;;;;;;;;;;;;;;;;;5078252;28;47451;-79
2022/09/13 13:33:08;;;;;;;;;;;;;;;;;;5056608;28;44023;-79
2022/09/13 13:35:34;;;;;;;;;;;;;;;;;;5067234;28;45445;-79
2022/09/13 13:38:00;;;;;;;;;;;;;;;;;;5059552;28;46262;-81
2022/09/13 13:40:27;;;;;;;;;;;;;;;;;;5064725;28;43734;-81
2022/09/13 13:42:54;;;;;;;;;;;;;;;;;;5076024;28;44456;-80
2022/09/13 13:45:20;;;;;;;;;;;;;;;;;;5081665;28;45255;-81
2022/09/13 13:47:46;;;;;;;;;;;;;;;;;;5063970;28;44059;-80
2022/09/13 13:50:13;;;;;;;;;;;;;;;;;;5061376;28;46868;-80
2022/09/13 13:52:39;;;;;;;;;;;;;;;;;;5063508;28;43999;-80
2022/09/13 13:55:05;;;;;;;;;;;;;;;;;;5059897;28;46448;-80
2022/09/13 13:57:32;;;;;;;;;;;;;;;;;;5061794;28;46653;-80
2022/09/13 13:59:58;;;;;;;;;;;;;;;;;;5080609;28;42163;-81
2022/09/13 14:02:24;;;;;;;;;;;;;;;;;;5081913;28;46066;-80
2022/09/13 14:04:51;;;;;;;;;;;;;;;;;;5064329;28;48559;-81
2022/09/13 14:07:17;;;;;;;;;;;;;;;;;;5063689;28;42568;-81
2022/09/13 14:09:45;;;;;;;;;;;;;;;;;;5066608;28;49758;-79
2022/09/13 14:12:11;;;;;;;;;;;;;;;;;;5054620;28;42063;-79
2022/09/13 14:14:37;;;;;;;;;;;;;;;;;;5076040;28;46362;-77
2022/09/13 14:17:03;;;;;;;;;;;;;;;;;;5055454;28;48425;-78
2022/09/13 14:19:30;;;;;;;;;;;;;;;;;;5069986;28;43423;-77
2022/09/13 14:21:56;;;;;;;;;;;;;;;;;;5049842;28;45177;-77
2022/09/13 14:24:23;;;;;;;;;;;;;;;;;;5049871;28;45394;-77
2022/09/13 14:26:51;;;;;;;;;;;;;;;;;;5051381;28;34962;-77
2022/09/13 14:29:17;;;;;;;;;;;;;;;;;;5062975;28;46363;-77
2022/09/13 14:31:44;;;;;;;;;;;;;;;;;;5064697;28;49793;-77
2022/09/13 14:34:10;;;;;;;;;;;;;;;;;;5052310;28;47547;-77
2022/09/13 14:36:36;;;;;;;;;;;;;;;;;;5069333;28;47157;-78
2022/09/13 14:39:02;;;;;;;;;;;;;;;;;;5058147;28;41785;-78
2022/09/13 14:41:29;;;;;;;;;;;;;;;;;;5048451;28;45998;-77
2022/09/13 14:43:58;;;;;;;;;;;;;;;;;;5046240;28;46898;-77
2022/09/13 14:46:24;;;;;;;;;;;;;;;;;;5049223;28;42010;-77
2022/09/13 14:48:51;;;;;;;;;;;;;;;;;;5066624;28;47726;-77
2022/09/13 14:51:17;;;;;;;;;;;;;;;;;;5064362;28;44129;-77
2022/09/13 14:53:43;;;;;;;;;;;;;;;;;;5068487;28;44972;-77
2022/09/13 14:56:12;;;;;;;;;;;;;;;;;;5071672;28;46143;-80
2022/09/13 14:58:39;;;;;;;;;;;;;;;;;;5057903;28;43774;-80
2022/09/13 15:01:05;;;;;;;;;;;;;;;;;;5072103;28;46719;-80
2022/09/13 15:03:31;;;;;;;;;;;;;;;;;;5065290;28;45304;-79
2022/09/13 15:05:57;;;;;;;;;;;;;;;;;;5076801;28;45092;-79
2022/09/13 15:08:24;;;;;;;;;;;;;;;;;;5076108;28;48012;-79
2022/09/13 15:10:50;;;;;;;;;;;;;;;;;;5056295;28;46078;-79
2022/09/13 15:13:16;;;;;;;;;;;;;;;;;;5054316;28;44795;-79
2022/09/13 15:15:44;;;;;;;;;;;;;;;;;;5055984;28;46992;-80
2022/09/13 15:18:10;;;;;;;;;;;;;;;;;;5057244;28;44042;-80
2022/09/13 15:20:36;;;;;;;;;;;;;;;;;;5056637;28;45214;-79
2022/09/13 15:23:03;;;;;;;;;;;;;;;;;;5057565;28;46235;-80
2022/09/13 15:25:30;;;;;;;;;;;;;;;;;;5055264;28;42524;-83
2022/09/13 15:27:56;;;;;;;;;;;;;;;;;;5055023;28;47719;-81
2022/09/13 15:30:23;;;;;;;;;;;;;;;;;;5051541;28;47179;-82
2022/09/13 15:32:49;;;;;;;;;;;;;;;;;;5073053;28;44192;-82
2022/09/13 15:35:15;;;;;;;;;;;;;;;;;;5072518;28;46437;-82
2022/09/13 15:37:41;;;;;;;;;;;;;;;;;;5055216;28;43210;-82
2022/09/13 15:40:08;;;;;;;;;;;;;;;;;;5072975;28;46759;-81
2022/09/13 15:42:34;;;;;;;;;;;;;;;;;;5057294;28;45200;-83
2022/09/13 15:45:00;;;;;;;;;;;;;;;;;;5079121;28;44345;-82
2022/09/13 15:47:26;;;;;;;;;;;;;;;;;;5059852;28;47801;-81
2022/09/13 15:49:52;;;;;;;;;;;;;;;;;;5059247;28;47211;-80
2022/09/13 15:52:19;;;;;;;;;;;;;;;;;;5056974;28;43142;-82
2022/09/13 15:54:45;;;;;;;;;;;;;;;;;;5070942;28;46704;-81
2022/09/13 15:57:11;;;;;;;;;;;;;;;;;;5047376;28;48177;-82
2022/09/13 15:59:37;;;;;;;;;;;;;;;;;;5072870;28;45333;-83
2022/09/13 16:02:03;;;;;;;;;;;;;;;;;;5056753;28;48132;-80
2022/09/13 16:04:30;;;;;;;;;;;;;;;;;;5055020;28;45461;-80
2022/09/13 16:06:56;;;;;;;;;;;;;;;;;;5053241;28;45347;-80
2022/09/13 16:09:22;;;;;;;;;;;;;;;;;;5056651;28;44584;-81
2022/09/13 16:11:49;;;;;;;;;;;;;;;;;;5060705;28;43281;-81
2022/09/13 16:14:15;;;;;;;;;;;;;;;;;;5060729;28;44831;-81
2022/09/13 16:16:42;;;;;;;;;;;;;;;;;;5074011;28;45615;-81
2022/09/13 16:19:08;;;;;;;;;;;;;;;;;;5077745;28;43083;-81
2022/09/13 16:21:34;;;;;;;;;;;;;;;;;;5058083;28;47305;-80
2022/09/13 16:24:00;;;;;;;;;;;;;;;;;;5057104;28;44015;-81
2022/09/13 16:26:26;;;;;;;;;;;;;;;;;;5073314;28;47738;-80
2022/09/13 16:28:53;;;;;;;;;;;;;;;;;;5055315;28;45893;-80
2022/09/13 16:31:19;;;;;;;;;;;;;;;;;;5057494;28;43638;-81
2022/09/13 16:33:45;;;;;;;;;;;;;;;;;;5074651;28;47765;-81
2022/09/13 16:36:12;;;;;;;;;;;;;;;;;;5072350;28;47320;-80
2022/09/13 16:38:38;;;;;;;;;;;;;;;;;;5074110;28;43945;-80
2022/09/13 16:41:04;;;;;;;;;;;;;;;;;;5073106;28;48317;-82